San Francisco, California
Current Conditions -  °F | °C
As of 10:56 AM on Thursday 30 Oct 2014 (Local Time) from KSFO Reporting Station
Broken Clouds Broken Clouds  
Wind Chill: 67°   Ceiling: 18000
Heat Index: 67°   Visibility: 10mi
Dew Point: 60°   Wind: 0mph
Humidity: 79%   Direction: NA
Pressure: 29.94"   Gusts: NA
Location:  37.78°N, 122.42°W
Report Text: KSFO 301756Z 00000KT 10SM FEW100 BKN180 19/16 A2994 RMK AO2 SLP137 T01940156 10200 20156 50001 $
Loading
Personal Weather Stations






























Interactive Weather Map
Tropical Storm Tracking
New forecast layout! Learn more

10-Day Weather Forecast

Advertisements
Track Severe Weather on mobile